Monango, North Dakota
Current Conditions -  °F | °C
As of 12:15 AM on Monday 26 Jan 2015 (Local Time) from KGWR Reporting Station
Broken Clouds Broken Clouds  
Wind Chill: 24°   Ceiling: 9000
Heat Index: 32°   Visibility: 10mi
Dew Point: 32°   Wind: 10mph
Humidity: 100%   Direction: 220°SW
Pressure: 29.79"   Gusts: NA
Location:  46.0577°N, 98.4986°W
Report Text: KGWR 260615Z AUTO 22009KT 10SM SCT005 BKN090 00/00 A2979 RMK A01 P000
Loading
Personal Weather Stations






























Interactive Weather Map New forecast layout! Learn more

10-Day Weather Forecast

Advertisements
Track Severe Weather on mobile